Airfield :
LOGIN :

Register | Disclaimer

   EN    FR    IT 

 










Legend :    VFR   Marginal VFR   IFR   Intensive IFR   Very Intensive IFR
Visi :
Ceiling :
>= 8 km
>= 3000ft
5 to 8 km
1000 to 3000 ft
1500m to 5 km
500 to 1000 ft
800 to 1500m
200 to 500 ft
< 800m
< 200 ft
Symbols :   Thunderstorms  Fog  Heavy snow  Heavy precipitations  Wind > 20 kt
SIGMETs :     Misc.  Thunderstorms  Icing  Turbulence  Mountain Waves  Volcanic Ashes







- Airport Elevation : 915 ft
- IATA code : LUG


LSZA - Lugano

CURRENT METAR :
  • 261220Z 20003KT 160V250 9999 BKN026 13/08 Q1017 NOSIG

EXPIRED METARs :
  • 261150Z 19003KT 160V220 9999 BKN027 13/08 Q1017 NOSIG
  • 261120Z 18004KT 140V220 9999 BKN025 12/07 Q1018 NOSIG
  • 261050Z 19004KT 160V220 9999 FEW020 BKN025 BKN035 12/07 Q1018 NOSIG
  • 261020Z 20005KT 9999 FEW020 BKN030 BKN048 12/07 Q1019 NOSIG
  • 260950Z 21003KT 180V240 9999 FEW018 SCT031 BKN048 11/07 Q1018 NOSIG

TAF TAF LSZA
Valid from the 26 at 12:00 until the 26 at 21:00 UTC


261125Z 2612/2621 VRB03KT 9999 FEW020 BKN025
TEMPO 2617/2621 SHRA
ATIS : +41 22 417 40 88
No reported NOTAMs for that airfield.



MET'MAP, your aeronautical weather chart ! - Copyright ORBIFLY December 2007 - Disclaimer

ORBIFLY MET'MAP TEAM :

Programming & Development : Alexandra Zaïnal
Concept & Development : Baudouin d'Aumeries
Co-Development & Prog : Marc-Olivier Méhu
Technical & hardware support : Manuel Goepfert

Contact : metmap@orbifly.com




SOURCES & CREDITS :

   NOAA